Time;durP1;ratioP1;P1;durP2;ratioP2;P2;SDS_P1;SDS_P2;PMS_P1;PMS_P2;Temp;Humidity;BMP_temperature;BMP_pressure;BME280_temperature;BME280_humidity;BME280_pressure;Samples;Min_cycle;Max_cycle;Signal;HPM_P1;HPM_P2
2022/12/24 00:02:25;;;;;;;137.02;47.22;;;;;;;9.51;77.71;99293.28;4929227;29;20071;-56
2022/12/24 00:05:14;;;;;;;143.20;51.38;;;;;;;9.94;76.17;99302.09;4927764;29;20060;-56
2022/12/24 00:07:56;;;;;;;135.57;52.10;;;;;;;9.66;77.03;99303.94;4928753;29;20486;-56
2022/12/24 00:10:56;;;;;;;137.75;50.20;;;;;;;9.63;78.18;99304.31;4940498;29;20151;-59
2022/12/24 00:13:32;;;;;;;137.57;49.35;;;;;;;9.64;76.53;99309.47;4940011;29;20558;-56
2022/12/24 00:16:21;;;;;;;124.13;45.67;;;;;;;9.57;78.25;99306.75;4918196;29;20044;-56
2022/12/24 00:19:10;;;;;;;128.70;46.78;;;;;;;9.71;77.49;99309.56;4930954;29;20146;-54
2022/12/24 00:21:59;;;;;;;142.32;49.10;;;;;;;9.70;77.71;99305.19;4928337;29;20149;-56
2022/12/24 00:24:41;;;;;;;136.15;48.75;;;;;;;9.68;77.71;99310.75;4936990;29;20047;-54
2022/12/24 00:27:30;;;;;;;162.07;51.85;;;;;;;9.68;78.27;99309.94;4947320;28;20688;-55
2022/12/24 00:30:19;;;;;;;145.10;49.15;;;;;;;9.77;77.59;99312.28;4933974;29;20059;-56
2022/12/24 00:33:02;;;;;;;147.45;50.22;;;;;;;9.87;77.27;99314.63;4942735;29;20063;-54
2022/12/24 00:35:59;;;;;;;149.60;51.42;;;;;;;9.80;78.16;99311.03;4948042;29;20057;-55
2022/12/24 00:38:35;;;;;;;170.95;53.45;;;;;;;9.63;77.69;99312.34;4946980;29;20055;-56
2022/12/24 00:41:30;;;;;;;175.20;57.55;;;;;;;9.50;78.06;99311.22;4928124;29;20440;-56
2022/12/24 00:44:10;;;;;;;174.98;55.42;;;;;;;9.90;77.40;99322.28;4932075;29;20066;-56
2022/12/24 00:47:05;;;;;;;156.85;54.25;;;;;;;9.82;76.96;99324.25;4947936;29;20549;-53
2022/12/24 00:49:46;;;;;;;158.75;52.15;;;;;;;9.56;78.09;99329.22;4946726;29;20123;-55
2022/12/24 00:52:34;;;;;;;161.95;53.15;;;;;;;9.54;78.14;99325.88;4934957;29;20051;-54
2022/12/24 00:55:16;;;;;;;139.52;49.63;;;;;;;9.74;77.73;99322.56;4937820;29;20154;-54
2022/12/24 00:58:11;;;;;;;139.25;49.28;;;;;;;9.58;78.00;99339.75;4926943;28;20576;-55
2022/12/24 01:01:00;;;;;;;141.15;47.67;;;;;;;9.55;78.00;99335.59;4923132;29;20062;-57
2022/12/24 01:03:50;;;;;;;124.38;49.17;;;;;;;9.53;78.04;99342.97;4927945;29;20058;-56
2022/12/24 01:06:38;;;;;;;124.35;45.53;;;;;;;9.45;77.74;99335.06;4922951;29;20076;-58
2022/12/24 01:09:20;;;;;;;137.15;43.25;;;;;;;9.62;77.44;99337.50;4908526;29;20052;-56
2022/12/24 01:12:09;;;;;;;122.82;43.97;;;;;;;9.64;77.76;99338.97;4914053;29;20048;-55
2022/12/24 01:14:58;;;;;;;127.60;44.63;;;;;;;9.46;78.01;99347.47;4908814;29;20048;-55
2022/12/24 01:17:53;;;;;;;139.15;47.88;;;;;;;9.34;78.35;99338.25;4908357;29;20115;-58
2022/12/24 01:20:31;;;;;;;139.30;46.30;;;;;;;9.34;78.76;99351.66;4927213;29;20523;-55
2022/12/24 01:23:26;;;;;;;123.25;43.70;;;;;;;9.28;79.60;99347.06;4898796;29;20099;-54
2022/12/24 01:26:03;;;;;;;129.68;42.45;;;;;;;9.23;79.54;99352.16;4891815;29;20076;-59
2022/12/24 01:28:53;;;;;;;145.73;47.42;;;;;;;9.10;79.65;99356.34;4927454;29;20147;-56
2022/12/24 01:31:35;;;;;;;143.20;48.53;;;;;;;9.19;79.27;99347.19;4917253;29;20139;-55
2022/12/24 01:34:31;;;;;;;155.00;48.72;;;;;;;9.57;78.26;99349.63;4926319;29;20051;-54
2022/12/24 01:37:07;;;;;;;141.85;46.78;;;;;;;9.31;79.40;99352.06;4921882;29;20048;-56
2022/12/24 01:43:22;;;;;;;142.43;47.63;;;;;;;9.21;80.02;99355.84;4909728;29;20052;-55
2022/12/24 01:46:31;;;;;;;151.63;49.35;;;;;;;9.27;79.66;99359.63;4927414;29;20059;-55
2022/12/24 01:49:22;;;;;;;162.82;53.72;;;;;;;9.23;79.32;99368.22;4906576;29;20067;-54
2022/12/24 01:52:10;;;;;;;165.45;53.55;;;;;;;9.49;78.41;99373.84;4925917;29;20040;-55
2022/12/24 01:55:15;;;;;;;153.65;50.42;;;;;;;9.52;79.12;99376.16;4919590;29;20158;-55
2022/12/24 01:58:13;;;;;;;146.63;48.15;;;;;;;9.57;78.21;99372.91;4908908;28;20120;-55
2022/12/24 02:01:03;;;;;;;137.05;47.13;;;;;;;9.84;77.40;99384.72;4925648;29;20395;-59
2022/12/24 02:03:45;;;;;;;144.13;47.17;;;;;;;9.37;78.52;99386.09;4928773;29;20390;-57
2022/12/24 02:06:34;;;;;;;146.93;48.38;;;;;;;9.48;78.83;99384.78;4945379;29;20164;-56
2022/12/24 02:09:23;;;;;;;141.60;46.85;;;;;;;9.41;79.35;99385.53;4945565;29;20506;-55
2022/12/24 02:12:12;;;;;;;146.48;48.58;;;;;;;9.46;78.61;99390.34;4933958;29;20063;-55
2022/12/24 02:15:02;;;;;;;140.77;47.25;;;;;;;9.72;78.41;99389.75;4926756;29;20064;-56
2022/12/24 02:17:59;;;;;;;151.10;47.47;;;;;;;9.83;78.33;99391.09;4938994;29;20158;-56
2022/12/24 02:21:06;;;;;;;131.77;44.55;;;;;;;9.70;78.20;99401.69;4927357;29;20476;-54
2022/12/24 02:24:22;;;;;;;138.27;43.50;;;;;;;9.46;78.08;99403.72;4926319;29;20491;-58
2022/12/24 02:27:22;;;;;;;120.53;41.75;;;;;;;9.15;79.00;99412.84;4937791;29;20054;-56
2022/12/24 02:30:40;;;;;;;106.60;39.35;;;;;;;9.05;79.23;99419.50;4927335;29;20134;-56
2022/12/24 02:33:52;;;;;;;112.75;38.47;;;;;;;9.25;78.75;99414.38;4925180;29;20130;-55
2022/12/24 02:36:39;;;;;;;;;;;;;;;8.83;79.63;99430.16;4920550;29;20426;-56
2022/12/24 02:39:58;;;;;;;121.05;38.38;;;;;;;8.86;79.89;99439.66;4934538;29;20905;-55
2022/12/24 02:42:43;;;;;;;109.78;36.78;;;;;;;9.27;79.71;99439.16;4931874;29;20055;-56
2022/12/24 02:45:37;;;;;;;124.30;38.17;;;;;;;9.22;79.13;99442.38;4936759;29;20048;-55
2022/12/24 02:48:21;;;;;;;114.85;38.85;;;;;;;9.42;79.04;99439.97;4940860;29;20131;-56
2022/12/24 02:51:16;;;;;;;128.38;43.72;;;;;;;9.64;78.50;99448.84;4937062;29;20055;-56
2022/12/24 02:53:58;;;;;;;119.20;38.78;;;;;;;9.16;79.03;99454.66;4941441;29;20055;-51
2022/12/24 02:56:57;;;;;;;115.13;39.58;;;;;;;9.20;79.13;99455.94;4939682;29;20067;-55
2022/12/24 03:00:01;;;;;;;110.40;37.70;;;;;;;9.13;79.28;99454.22;4938188;28;20145;-55
2022/12/24 03:03:24;;;;;;;113.53;39.40;;;;;;;9.41;78.60;99462.41;4939130;29;20047;-55
2022/12/24 03:06:20;;;;;;;120.88;37.97;;;;;;;9.19;79.08;99470.38;4939492;29;20117;-55
2022/12/24 03:09:40;;;;;;;120.47;39.50;;;;;;;9.33;78.67;99467.88;4922375;29;20054;-54
2022/12/24 03:12:29;;;;;;;113.88;39.35;;;;;;;9.10;77.87;99466.13;4940009;29;20046;-56
2022/12/24 03:15:23;;;;;;;118.45;39.40;;;;;;;8.89;78.71;99471.41;4940606;29;20439;-59
2022/12/24 03:18:08;;;;;;;121.13;40.75;;;;;;;8.99;78.03;99470.09;4937456;29;20459;-54
2022/12/24 03:21:06;;;;;;;114.00;40.95;;;;;;;9.11;78.59;99470.44;4911749;29;20102;-52
2022/12/24 03:23:49;;;;;;;109.70;39.00;;;;;;;9.14;78.60;99467.41;4937018;29;20122;-53
2022/12/24 03:26:46;;;;;;;115.97;39.05;;;;;;;9.45;78.15;99478.94;4939547;29;20103;-52
2022/12/24 03:29:22;;;;;;;113.22;40.03;;;;;;;9.10;78.70;99474.16;4948126;29;20126;-53
2022/12/24 03:32:10;;;;;;;123.68;42.20;;;;;;;9.25;78.24;99478.66;4947882;29;20058;-55
2022/12/24 03:34:52;;;;;;;120.75;41.25;;;;;;;9.04;78.25;99487.44;4930009;29;20550;-54
2022/12/24 03:37:41;;;;;;;117.45;39.72;;;;;;;9.23;77.44;99488.72;4938914;29;20118;-55
2022/12/24 03:40:23;;;;;;;126.47;40.47;;;;;;;9.38;77.18;99494.91;4937177;29;20810;-55
2022/12/24 03:43:18;;;;;;;128.23;40.72;;;;;;;9.04;78.10;99499.00;4937339;29;20047;-55
2022/12/24 03:45:54;;;;;;;118.68;37.72;;;;;;;8.62;79.57;99509.31;4936376;29;20132;-55
2022/12/24 03:48:49;;;;;;;129.32;40.38;;;;;;;8.36;80.86;99512.34;4937703;29;20134;-56
2022/12/24 03:51:26;;;;;;;129.95;42.30;;;;;;;9.21;79.46;99524.59;4937851;29;20051;-54
2022/12/24 03:54:20;;;;;;;132.32;45.92;;;;;;;9.44;78.24;99523.66;4938235;29;20051;-58
2022/12/24 03:56:56;;;;;;;140.25;46.92;;;;;;;9.36;77.80;99521.06;4923157;29;20047;-54
2022/12/24 03:59:51;;;;;;;142.57;45.58;;;;;;;9.67;77.49;99533.38;4939217;28;20479;-56
2022/12/24 04:02:49;;;;;;;141.75;45.50;;;;;;;9.60;76.71;99533.31;4940241;29;20055;-56
2022/12/24 04:05:31;;;;;;;128.02;43.90;;;;;;;9.77;76.07;99536.63;4940495;29;20058;-54
2022/12/24 04:08:26;;;;;;;135.13;44.05;;;;;;;10.06;76.33;99549.09;4941074;29;20531;-58
2022/12/24 04:11:04;;;;;;;142.18;46.22;;;;;;;9.79;77.44;99547.97;4936645;29;20060;-58
2022/12/24 04:13:53;;;;;;;138.65;46.15;;;;;;;9.86;77.52;99546.22;4938494;29;20637;-53
2022/12/24 04:16:35;;;;;;;141.35;46.88;;;;;;;9.84;76.82;99553.63;4937037;29;20558;-55
2022/12/24 04:19:24;;;;;;;136.32;46.42;;;;;;;10.27;75.13;99547.47;4936393;29;20146;-54
2022/12/24 04:22:06;;;;;;;151.82;48.25;;;;;;;10.09;75.75;99562.16;4946209;29;20053;-54
2022/12/24 04:24:55;;;;;;;122.38;40.85;;;;;;;10.13;75.51;99562.59;4935823;29;20055;-54
2022/12/24 04:27:37;;;;;;;150.55;45.75;;;;;;;9.67;75.62;99560.19;4940552;29;20071;-55
2022/12/24 04:30:26;;;;;;;146.68;49.75;;;;;;;10.16;75.30;99565.72;4935294;29;20126;-55
2022/12/24 04:33:08;;;;;;;158.13;53.72;;;;;;;9.61;76.19;99567.16;4935075;29;20102;-57
2022/12/24 04:36:04;;;;;;;168.25;54.40;;;;;;;9.67;75.40;99568.22;4939796;29;20059;-57
2022/12/24 04:38:40;;;;;;;153.63;51.42;;;;;;;9.57;76.73;99574.72;4946187;29;20115;-55
2022/12/24 04:41:35;;;;;;;168.57;52.88;;;;;;;9.77;76.35;99587.53;4938516;29;20683;-55
2022/12/24 04:44:11;;;;;;;162.63;52.03;;;;;;;9.77;74.91;99569.59;4915978;29;20055;-56
2022/12/24 04:47:05;;;;;;;172.82;54.75;;;;;;;9.72;76.72;99563.97;4936742;29;20066;-56
2022/12/24 04:49:41;;;;;;;186.35;57.63;;;;;;;9.59;75.87;99566.47;4935281;29;20063;-55
2022/12/24 04:52:30;;;;;;;189.95;63.88;;;;;;;9.89;75.17;99561.91;4945501;29;20074;-54
2022/12/24 04:55:19;;;;;;;222.20;71.13;;;;;;;9.89;75.86;99561.91;4929797;29;20047;-55
2022/12/24 04:58:01;;;;;;;243.43;78.85;;;;;;;10.31;73.84;99560.31;4927328;29;20440;-53
2022/12/24 05:00:57;;;;;;;253.77;85.82;;;;;;;10.45;73.28;99563.97;4936516;29;20055;-55
2022/12/24 05:03:34;;;;;;;252.95;81.03;;;;;;;10.63;73.67;99566.19;4928217;29;20051;-56
2022/12/24 05:06:32;;;;;;;249.55;82.35;;;;;;;10.89;73.10;99578.16;4926205;29;20058;-56
2022/12/24 05:09:08;;;;;;;272.42;83.55;;;;;;;10.63;72.69;99573.44;4931039;28;20071;-56
2022/12/24 05:11:57;;;;;;;250.43;83.50;;;;;;;10.67;73.71;99574.69;4930793;28;20083;-61
2022/12/24 05:14:46;;;;;;;246.95;80.60;;;;;;;10.61;72.95;99578.16;4941994;28;20288;-60
2022/12/24 05:17:28;;;;;;;250.70;83.32;;;;;;;10.96;73.30;99579.88;4930079;29;20063;-58
2022/12/24 05:20:17;;;;;;;236.52;80.28;;;;;;;11.07;72.80;99581.19;4930654;28;20048;-60
2022/12/24 05:26:21;;;;;;;227.77;71.57;;;;;;;10.69;72.43;99594.13;4928076;29;20047;-59
2022/12/24 05:29:11;;;;;;;218.52;69.43;;;;;;;11.51;71.43;99585.41;4937520;28;20138;-59
2022/12/24 05:32:00;;;;;;;216.63;67.70;;;;;;;11.34;70.60;99586.75;4937647;28;20455;-60
2022/12/24 05:34:42;;;;;;;198.80;64.90;;;;;;;11.33;71.14;99572.50;4929683;28;20073;-59
2022/12/24 05:37:31;;;;;;;209.90;65.05;;;;;;;11.59;70.75;99567.47;4943105;28;20066;-57
2022/12/24 05:40:13;;;;;;;196.00;61.80;;;;;;;11.43;70.72;99558.69;4932971;28;20231;-61
2022/12/24 05:43:02;;;;;;;180.25;60.25;;;;;;;11.33;73.83;99564.44;4940890;28;20058;-58
2022/12/24 05:45:44;;;;;;;172.93;56.63;;;;;;;10.81;72.37;99564.88;4936001;28;20055;-59
2022/12/24 05:48:33;;;;;;;183.93;59.25;;;;;;;10.92;72.00;99550.94;4943600;28;20415;-60
2022/12/24 05:51:21;;;;;;;179.30;59.78;;;;;;;11.04;72.39;99549.34;4936602;28;20051;-60
2022/12/24 05:54:09;;;;;;;;;;;;;;;11.19;72.36;99554.63;4938582;28;20055;-60
2022/12/24 05:56:51;;;;;;;178.98;54.97;;;;;;;11.61;73.47;99546.56;4941680;28;19954;-61
2022/12/24 05:59:40;;;;;;;178.02;57.65;;;;;;;11.67;71.61;99545.78;4925677;28;20047;-59
2022/12/24 06:02:35;;;;;;;161.32;58.22;;;;;;;11.28;71.91;99537.31;4927217;29;20044;-57
2022/12/24 06:05:11;;;;;;;179.32;56.95;;;;;;;11.59;71.44;99537.88;4930546;29;20097;-57
2022/12/24 06:08:06;;;;;;;182.27;57.08;;;;;;;11.42;72.80;99527.47;4936622;29;20150;-57
2022/12/24 06:10:42;;;;;;;171.27;54.97;;;;;;;11.86;71.58;99514.59;4935470;29;20811;-58
2022/12/24 06:13:31;;;;;;;176.55;55.85;;;;;;;11.63;71.89;99523.00;4941214;29;20063;-59
2022/12/24 06:16:19;;;;;;;187.90;58.83;;;;;;;11.93;72.11;99521.69;4930246;29;20456;-59
2022/12/24 06:19:08;;;;;;;186.57;59.90;;;;;;;11.92;70.66;99524.56;4927048;29;20134;-60
2022/12/24 06:21:50;;;;;;;196.52;64.70;;;;;;;11.78;70.78;99517.47;4938275;29;20491;-58
2022/12/24 06:24:39;;;;;;;180.00;59.13;;;;;;;12.18;70.69;99509.53;4937571;29;20047;-58
2022/12/24 06:27:28;;;;;;;204.45;69.45;;;;;;;11.76;69.95;99512.28;4939316;29;20058;-56
2022/12/24 06:30:10;;;;;;;204.70;68.22;;;;;;;11.62;70.21;99505.22;4938141;29;20142;-59
2022/12/24 06:32:59;;;;;;;222.18;74.07;;;;;;;11.82;69.88;99498.03;4940390;29;20546;-57
2022/12/24 06:35:41;;;;;;;213.63;73.35;;;;;;;12.04;69.86;99496.06;4935507;29;20058;-56
2022/12/24 06:38:30;;;;;;;212.82;71.80;;;;;;;12.39;68.64;99489.69;4921641;29;20048;-58
2022/12/24 06:41:20;;;;;;;212.38;71.85;;;;;;;12.64;67.99;99482.63;4924262;29;20059;-56
2022/12/24 06:44:09;;;;;;;216.02;72.10;;;;;;;12.40;67.92;99473.34;4934976;29;20064;-56
2022/12/24 06:47:04;;;;;;;225.07;74.70;;;;;;;12.08;68.24;99465.03;4936659;29;20059;-55
2022/12/24 06:49:40;;;;;;;226.02;75.65;;;;;;;12.15;69.06;99462.31;4931987;29;20554;-56
2022/12/24 06:52:28;;;;;;;209.82;71.22;;;;;;;12.37;68.97;99451.38;4937350;28;20110;-58
2022/12/24 06:55:17;;;;;;;232.35;79.35;;;;;;;12.54;68.17;99444.53;4943876;29;20055;-54
2022/12/24 06:58:12;;;;;;;214.20;73.78;;;;;;;13.13;66.53;99440.88;4927870;29;20056;-49
2022/12/24 07:01:12;;;;;;;226.57;79.65;;;;;;;13.15;65.87;99439.84;4930431;29;20056;-54
2022/12/24 07:03:48;;;;;;;218.75;76.07;;;;;;;13.16;66.85;99433.41;4930786;29;20048;-60
2022/12/24 07:06:43;;;;;;;234.60;77.13;;;;;;;13.17;64.81;99426.97;4943633;29;20047;-56
2022/12/24 07:09:19;;;;;;;225.48;75.75;;;;;;;13.76;64.96;99412.38;4931237;29;20050;-55
2022/12/24 07:12:07;;;;;;;217.45;73.05;;;;;;;13.42;64.79;99410.94;4938465;29;20056;-61
2022/12/24 07:14:49;;;;;;;207.65;72.53;;;;;;;13.43;64.88;99413.41;4930704;29;20118;-56
2022/12/24 07:17:40;;;;;;;217.27;74.07;;;;;;;13.06;65.30;99404.22;4936452;29;20154;-56
2022/12/24 07:20:29;;;;;;;225.27;75.30;;;;;;;13.30;66.53;99403.50;4907881;29;20543;-57
2022/12/24 07:23:11;;;;;;;230.80;78.38;;;;;;;13.54;63.58;99393.00;4923502;29;20054;-55
2022/12/24 07:26:01;;;;;;;222.15;79.22;;;;;;;13.74;64.88;99392.91;4904180;29;20055;-66
2022/12/24 07:28:43;;;;;;;217.52;74.57;;;;;;;13.94;63.71;99390.03;4937906;29;20131;-62
2022/12/24 07:31:32;;;;;;;231.90;74.68;;;;;;;14.08;65.44;99372.72;4940634;28;20487;-62
2022/12/24 07:34:14;;;;;;;207.07;75.20;;;;;;;13.58;64.90;99371.84;4906160;29;20134;-60
2022/12/24 07:37:03;;;;;;;211.05;76.05;;;;;;;13.93;63.60;99369.53;4937994;29;20475;-65
2022/12/24 07:39:45;;;;;;;244.88;82.00;;;;;;;13.76;64.49;99374.63;4937780;29;20235;-60
2022/12/24 07:42:35;;;;;;;236.52;84.20;;;;;;;13.86;64.03;99364.16;4933556;29;20113;-61
2022/12/24 07:45:17;;;;;;;253.52;84.95;;;;;;;13.67;64.36;99357.03;4932871;29;20054;-60
2022/12/24 07:48:06;;;;;;;206.00;73.32;;;;;;;13.73;63.88;99352.66;4935994;28;20055;-61
2022/12/24 07:50:49;;;;;;;221.27;75.57;;;;;;;13.86;63.00;99349.84;4939566;29;20062;-66
2022/12/24 07:53:38;;;;;;;208.60;72.25;;;;;;;13.80;62.87;99343.47;4934777;29;20142;-69
2022/12/24 07:56:20;;;;;;;202.85;75.72;;;;;;;13.97;63.44;99337.53;4918744;29;20134;-64
2022/12/24 07:59:19;;;;;;;220.70;75.60;;;;;;;14.23;62.93;99342.66;4933333;29;20059;-66
2022/12/24 08:02:16;;;;;;;212.30;80.22;;;;;;;14.01;63.54;99341.44;4931903;29;20053;-62
2022/12/24 08:04:53;;;;;;;241.60;88.00;;;;;;;13.97;63.08;99326.75;4932155;29;20115;-63
2022/12/24 08:07:48;;;;;;;240.88;80.97;;;;;;;14.20;63.40;99334.22;4909308;29;20484;-62
2022/12/24 08:10:24;;;;;;;234.45;81.68;;;;;;;14.34;63.37;99324.09;4931598;29;20051;-63
2022/12/24 08:13:14;;;;;;;235.82;80.53;;;;;;;14.35;64.13;99320.31;4928420;29;20550;-65
2022/12/24 08:16:04;;;;;;;237.95;82.07;;;;;;;14.39;62.86;99313.47;4928044;29;20596;-65
2022/12/24 08:18:46;;;;;;;252.17;87.97;;;;;;;14.38;62.42;99314.50;4920709;29;20047;-67
2022/12/24 08:21:35;;;;;;;248.05;86.35;;;;;;;13.88;63.83;99310.81;4936480;29;20062;-63
2022/12/24 08:24:17;;;;;;;231.15;82.35;;;;;;;13.86;64.35;99304.81;4931850;29;20039;-65
2022/12/24 08:27:06;;;;;;;239.18;82.80;;;;;;;13.97;64.42;99297.88;4932884;29;20139;-65
2022/12/24 08:29:49;;;;;;;247.68;80.70;;;;;;;14.12;63.82;99292.13;4939634;29;20079;-61
2022/12/24 08:32:39;;;;;;;246.50;83.93;;;;;;;13.87;63.82;99301.06;4591395;29;9999744;-62
2022/12/24 08:35:34;;;;;;;248.30;81.50;;;;;;;14.20;62.72;99289.13;4923822;29;20437;-63
2022/12/24 08:38:10;;;;;;;251.50;82.80;;;;;;;14.51;63.06;99283.81;4933482;29;20614;-65
2022/12/24 08:41:06;;;;;;;287.70;89.13;;;;;;;14.66;62.54;99285.09;4933742;29;20051;-62
2022/12/24 08:43:49;;;;;;;255.88;86.40;;;;;;;14.73;61.24;99276.09;4926681;28;20748;-64
2022/12/24 08:46:38;;;;;;;269.20;89.05;;;;;;;14.99;61.87;99278.44;4902950;29;20574;-65
2022/12/24 08:49:27;;;;;;;256.92;85.45;;;;;;;14.85;61.02;99280.50;4933699;29;20356;-61
2022/12/24 08:52:16;;;;;;;252.70;86.35;;;;;;;14.89;61.76;99275.47;4933558;29;20163;-62
2022/12/24 08:54:58;;;;;;;253.73;86.03;;;;;;;14.39;61.56;99275.66;4934911;29;20056;-65
2022/12/24 08:57:47;;;;;;;253.13;85.90;;;;;;;14.87;61.80;99272.19;4932470;29;20581;-62
2022/12/24 09:00:30;;;;;;;238.80;87.13;;;;;;;14.72;61.29;99274.47;4932778;29;20055;-64
2022/12/24 09:03:20;;;;;;;236.88;84.25;;;;;;;14.83;61.64;99271.00;4942302;29;20158;-64
2022/12/24 09:06:08;;;;;;;221.52;77.53;;;;;;;14.70;61.58;99268.47;4935887;29;20039;-65
2022/12/24 09:08:57;;;;;;;241.13;84.75;;;;;;;14.82;60.85;99267.44;4928204;29;20392;-66
2022/12/24 09:11:39;;;;;;;241.18;88.90;;;;;;;14.94;61.79;99264.81;4931857;29;20476;-67
2022/12/24 09:14:28;;;;;;;259.77;90.05;;;;;;;15.19;60.88;99261.13;4926170;29;20051;-66
2022/12/24 09:17:11;;;;;;;221.10;85.43;;;;;;;15.41;61.66;99256.81;4944526;29;20170;-64
2022/12/24 09:20:00;;;;;;;232.13;83.32;;;;;;;15.17;59.87;99257.81;4930391;29;20107;-65
2022/12/24 09:22:42;;;;;;;229.77;82.95;;;;;;;15.07;60.54;99256.53;4933318;29;20056;-64
2022/12/24 09:25:31;;;;;;;222.15;87.93;;;;;;;14.82;61.28;99258.53;4937197;29;20058;-64
2022/12/24 09:28:13;;;;;;;225.05;80.03;;;;;;;14.59;62.00;99265.44;4937005;29;20092;-64
2022/12/24 09:31:08;;;;;;;216.18;80.47;;;;;;;14.73;61.03;99262.59;4936966;29;20499;-64
2022/12/24 09:33:51;;;;;;;219.88;78.50;;;;;;;14.32;62.08;99254.13;4939108;29;20058;-66
2022/12/24 09:36:40;;;;;;;211.43;79.75;;;;;;;14.79;61.45;99257.09;4937970;29;20047;-66
2022/12/24 09:39:29;;;;;;;210.95;80.40;;;;;;;14.74;61.46;99250.75;4931788;29;20058;-66
2022/12/24 09:42:30;;;;;;;217.85;81.53;;;;;;;14.48;61.89;99241.88;4925085;29;20272;-64
2022/12/24 09:45:29;;;;;;;204.63;78.80;;;;;;;14.60;62.54;99231.19;4937387;29;20803;-65
2022/12/24 09:48:23;;;;;;;207.30;78.65;;;;;;;14.54;62.80;99232.88;4939684;29;20043;-63
2022/12/24 09:51:35;;;;;;;209.27;77.60;;;;;;;14.59;62.49;99227.63;4938870;29;20055;-63
2022/12/24 09:54:34;;;;;;;194.45;72.45;;;;;;;14.64;61.09;99210.75;4936168;29;20040;-63
2022/12/24 09:57:37;;;;;;;193.10;71.13;;;;;;;14.91;62.25;99218.50;4932600;29;20440;-60
2022/12/24 10:00:43;;;;;;;187.73;70.35;;;;;;;14.84;61.43;99213.19;4938247;29;20126;-61
2022/12/24 10:03:32;;;;;;;162.30;63.75;;;;;;;14.60;61.32;99212.28;4943410;29;20058;-61
2022/12/24 10:06:33;;;;;;;174.10;65.40;;;;;;;14.47;61.82;99203.25;4923543;29;20067;-63
2022/12/24 10:09:33;;;;;;;187.93;70.40;;;;;;;14.58;62.39;99200.84;4938379;29;20141;-58
2022/12/24 10:13:05;;;;;;;189.75;69.82;;;;;;;14.81;62.74;99202.84;4921966;29;20114;-62
2022/12/24 10:16:06;;;;;;;170.82;68.00;;;;;;;14.91;61.58;99208.50;4928898;29;20067;-63
2022/12/24 10:19:07;;;;;;;178.23;69.07;;;;;;;14.79;62.43;99210.31;4935976;29;20054;-65
2022/12/24 10:22:03;;;;;;;183.35;69.85;;;;;;;14.48;62.98;99210.31;4931794;29;20159;-66
2022/12/24 10:25:36;;;;;;;178.82;67.07;;;;;;;14.58;62.48;99204.41;4933842;29;20539;-62
2022/12/24 10:28:48;;;;;;;165.88;67.47;;;;;;;14.62;62.13;99199.38;4935542;29;20051;-63
2022/12/24 10:31:36;;;;;;;160.15;64.07;;;;;;;14.27;62.84;99203.50;4934587;29;20046;-61
2022/12/24 10:34:32;;;;;;;167.30;65.53;;;;;;;14.20;62.78;99194.66;4936874;29;20052;-64
2022/12/24 10:37:28;;;;;;;159.98;64.60;;;;;;;14.52;62.72;99196.34;4935342;28;20499;-62
2022/12/24 10:40:34;;;;;;;155.13;62.75;;;;;;;14.63;63.17;99196.41;4936749;29;20067;-64
2022/12/24 10:43:33;;;;;;;154.05;64.18;;;;;;;14.90;61.83;99198.75;4933182;29;20055;-64
2022/12/24 10:46:38;;;;;;;146.02;59.97;;;;;;;14.96;62.84;99200.53;4929631;29;20047;-65
2022/12/24 10:49:24;;;;;;;148.95;60.45;;;;;;;14.63;62.69;99196.41;4937756;29;20062;-65
2022/12/24 10:52:34;;;;;;;153.77;58.85;;;;;;;14.59;63.34;99187.13;4931211;29;20060;-63
2022/12/24 10:55:18;;;;;;;140.45;58.28;;;;;;;14.64;63.45;99189.16;4939373;29;20827;-64
2022/12/24 10:58:16;;;;;;;130.95;54.92;;;;;;;14.66;64.60;99184.34;4941244;29;20051;-64
2022/12/24 11:00:59;;;;;;;135.90;54.40;;;;;;;14.52;63.64;99175.56;4939236;29;20476;-66
2022/12/24 11:04:29;;;;;;;123.65;52.08;;;;;;;14.47;63.96;99180.81;4937047;29;20431;-68
2022/12/24 11:07:17;;;;;;;126.85;51.35;;;;;;;14.54;64.66;99175.31;4935686;29;20051;-64
2022/12/24 11:10:07;;;;;;;134.45;52.67;;;;;;;14.53;64.08;99179.91;4936700;29;20101;-67
2022/12/24 11:12:56;;;;;;;123.65;49.67;;;;;;;14.59;64.24;99175.50;4937923;29;20580;-64
2022/12/24 11:16:23;;;;;;;125.82;49.35;;;;;;;14.12;65.19;99176.06;4938183;29;20493;-67
2022/12/24 11:19:23;;;;;;;127.95;49.40;;;;;;;14.30;64.75;99186.84;4937083;29;20170;-66
2022/12/24 11:22:30;;;;;;;121.70;48.67;;;;;;;14.38;65.85;99177.59;4943292;29;20047;-67
2022/12/24 11:25:31;;;;;;;128.50;46.92;;;;;;;14.28;65.21;99180.03;4925192;29;20074;-66
2022/12/24 11:28:27;;;;;;;115.53;46.78;;;;;;;14.23;65.46;99180.69;4935423;29;20844;-67
2022/12/24 11:31:28;;;;;;;115.43;46.80;;;;;;;14.32;65.20;99177.69;4934129;28;20702;-65
2022/12/24 11:34:36;;;;;;;124.38;49.53;;;;;;;14.26;65.65;99177.53;4938567;29;20048;-67
2022/12/24 11:37:30;;;;;;;114.47;48.22;;;;;;;14.12;66.86;99173.38;4938120;29;20040;-66
2022/12/24 11:40:25;;;;;;;118.10;47.70;;;;;;;13.92;66.35;99175.47;4937587;29;20590;-65
2022/12/24 11:43:43;;;;;;;126.38;53.42;;;;;;;13.88;66.91;99177.78;4941071;29;20042;-66
2022/12/24 11:46:37;;;;;;;136.82;51.70;;;;;;;13.74;66.90;99177.09;4934679;29;20065;-68
2022/12/24 11:49:29;;;;;;;116.43;46.55;;;;;;;13.51;66.88;99172.34;4934775;29;20051;-68
2022/12/24 11:52:17;;;;;;;119.72;49.53;;;;;;;13.83;67.91;99181.16;4932853;29;20863;-66
2022/12/24 11:55:03;;;;;;;120.65;49.90;;;;;;;13.79;66.37;99177.25;4938565;29;20059;-68
2022/12/24 11:58:03;;;;;;;125.28;48.35;;;;;;;13.86;66.04;99180.69;4923501;29;20130;-63
2022/12/24 12:01:08;;;;;;;123.30;51.13;;;;;;;13.77;66.32;99182.03;4938275;29;20055;-65
2022/12/24 12:04:02;;;;;;;117.38;49.33;;;;;;;13.79;66.73;99182.63;4921020;29;20047;-65
2022/12/24 12:07:02;;;;;;;123.35;48.70;;;;;;;13.79;66.96;99173.72;4258804;29;10000438;-68
2022/12/24 12:10:13;;;;;;;120.05;47.75;;;;;;;13.72;67.54;99181.91;4934306;29;20290;-62
2022/12/24 12:13:18;;;;;;;119.00;50.42;;;;;;;13.55;68.31;99187.03;4945068;29;20059;-63
2022/12/24 12:16:59;;;;;;;124.95;49.78;;;;;;;13.55;68.16;99184.34;4933692;29;20813;-65
2022/12/24 12:19:37;;;;;;;129.32;50.75;;;;;;;13.17;69.16;99187.94;4927672;29;20141;-68
2022/12/24 12:22:39;;;;;;;114.85;49.60;;;;;;;13.21;69.66;99189.16;4934251;29;20545;-62
2022/12/24 12:25:38;;;;;;;127.53;49.78;;;;;;;13.14;70.17;99182.97;4933945;29;20055;-61
2022/12/24 12:28:23;;;;;;;125.35;49.75;;;;;;;13.21;69.87;99185.63;4926152;29;20138;-64
2022/12/24 12:31:29;;;;;;;128.13;49.22;;;;;;;13.13;70.52;99186.72;4928332;29;20051;-60
2022/12/24 12:34:14;;;;;;;129.65;49.20;;;;;;;13.24;70.21;99190.56;4935247;29;20118;-62
2022/12/24 12:37:10;;;;;;;120.05;48.83;;;;;;;13.16;70.41;99194.34;4935098;29;20047;-63
2022/12/24 12:39:55;;;;;;;132.95;50.83;;;;;;;13.02;69.85;99196.34;4944096;29;20039;-64
2022/12/24 12:43:05;;;;;;;124.03;48.90;;;;;;;12.99;71.01;99196.75;4935162;29;20059;-63
2022/12/24 12:45:57;;;;;;;128.40;49.10;;;;;;;12.99;71.42;99195.94;4937605;29;20478;-65
2022/12/24 12:49:03;;;;;;;121.50;49.13;;;;;;;13.10;69.82;99190.66;4931597;29;20055;-68
2022/12/24 12:51:41;;;;;;;125.38;50.15;;;;;;;13.12;70.27;99191.28;4934953;29;20050;-62
2022/12/24 12:55:15;;;;;;;123.85;48.38;;;;;;;13.02;69.87;99195.50;4935265;29;20641;-61
2022/12/24 12:58:04;;;;;;;116.85;46.05;;;;;;;12.89;71.36;99201.81;4931474;29;20688;-65
2022/12/24 13:01:05;;;;;;;122.13;49.03;;;;;;;13.10;70.16;99204.16;4941943;29;20908;-63
2022/12/24 13:03:50;;;;;;;136.65;51.33;;;;;;;13.04;70.54;99207.72;4930091;29;20059;-62
2022/12/24 13:07:10;;;;;;;119.68;49.10;;;;;;;13.06;70.62;99213.72;4933501;29;20475;-64
2022/12/24 13:10:14;;;;;;;150.35;54.13;;;;;;;12.93;70.93;99213.81;4928338;29;20809;-63